Time;durP1;ratioP1;P1;durP2;ratioP2;P2;SDS_P1;SDS_P2;PMS_P1;PMS_P2;Temp;Humidity;BMP_temperature;BMP_pressure;BME280_temperature;BME280_humidity;BME280_pressure;Samples;Min_cycle;Max_cycle;Signal;HPM_P1;HPM_P2
2023/10/03 00:00:28;;;;;;;;;;;;;;;;;;5001523;28;1919;-50
2023/10/03 00:03:00;;;;;;;;;;;;;;;;;;4996368;28;5258;-48
2023/10/03 00:05:29;;;;;;;;;;;;;;;;;;5005806;28;4688;-50
2023/10/03 00:07:58;;;;;;;;;;;;;;;;;;5006612;28;4457;-53
2023/10/03 00:10:23;;;;;;;;;;;;;;;;;;4997228;28;4553;-49
2023/10/03 00:12:49;;;;;;;;;;;;;;;;;;5001309;28;1129;-50
2023/10/03 00:15:18;;;;;;;;;;;;;;;;;;4999745;28;4588;-49
2023/10/03 00:17:44;;;;;;;;;;;;;;;;;;5006605;28;5320;-49
2023/10/03 00:20:12;;;;;;;;;;;;;;;;;;5006442;28;4849;-50
2023/10/03 00:22:38;;;;;;;;;;;;;;;;;;5005916;28;4987;-50
2023/10/03 00:25:04;;;;;;;;;;;;;;;;;;5007262;28;4957;-49
2023/10/03 00:27:32;;;;;;;;;;;;;;;;;;5009544;28;1252;-52
2023/10/03 00:29:58;;;;;;;;;;;;;;;;;;5007874;28;5077;-51
2023/10/03 00:32:23;;;;;;;;;;;;;;;;;;5008384;28;5268;-49
2023/10/03 00:34:49;;;;;;;;;;;;;;;;;;5006300;28;5082;-49
2023/10/03 00:37:14;;;;;;;;;;;;;;;;;;5004864;28;4891;-47
2023/10/03 00:39:41;;;;;;;;;;;;;;;;;;5009627;28;2573;-50
2023/10/03 00:42:09;;;;;;;;;;;;;;;;;;5006114;28;5813;-52
2023/10/03 00:44:34;;;;;;;;;;;;;;;;;;5003889;28;4998;-50
2023/10/03 00:46:59;;;;;;;;;;;;;;;;;;5006919;28;4669;-49
2023/10/03 00:49:28;;;;;;;;;;;;;;;;;;5001212;28;4695;-50
2023/10/03 00:51:56;;;;;;;;;;;;;;;;;;5007010;28;4489;-49
2023/10/03 00:54:21;;;;;;;;;;;;;;;;;;5007077;28;1390;-52
2023/10/03 00:56:47;;;;;;;;;;;;;;;;;;4997973;28;5073;-48
2023/10/03 00:59:13;;;;;;;;;;;;;;;;;;4990540;28;5087;-48
2023/10/03 01:01:38;;;;;;;;;;;;;;;;;;5002023;28;5153;-50
2023/10/03 01:04:05;;;;;;;;;;;;;;;;;;4997343;28;5090;-50
2023/10/03 01:06:30;;;;;;;;;;;;;;;;;;4999622;28;1252;-48
2023/10/03 01:08:58;;;;;;;;;;;;;;;;;;4999284;28;5079;-50
2023/10/03 01:11:25;;;;;;;;;;;;;;;;;;5004980;28;4971;-51
2023/10/03 01:13:57;;;;;;;;;;;;;;;;;;5003544;28;5059;-49
2023/10/03 01:16:36;;;;;;;;;;;;;;;;;;5002655;28;5091;-51
2023/10/03 01:19:13;;;;;;;;;;;;;;;;;;5004158;28;4452;-51
2023/10/03 01:21:41;;;;;;;;;;;;;;;;;;5000975;28;1985;-50
2023/10/03 01:24:09;;;;;;;;;;;;;;;;;;5004395;28;4461;-49
2023/10/03 01:26:35;;;;;;;;;;;;;;;;;;5000662;28;5045;-52
2023/10/03 01:29:00;;;;;;;;;;;;;;;;;;5007687;28;5148;-52
2023/10/03 01:31:27;;;;;;;;;;;;;;;;;;4989675;28;5080;-50
2023/10/03 01:33:52;;;;;;;;;;;;;;;;;;5003121;28;5104;-52
2023/10/03 01:36:19;;;;;;;;;;;;;;;;;;4999116;28;1153;-49
2023/10/03 01:38:45;;;;;;;;;;;;;;;;;;5006904;28;4416;-48
2023/10/03 01:41:12;;;;;;;;;;;;;;;;;;5001304;28;4875;-48
2023/10/03 01:43:38;;;;;;;;;;;;;;;;;;4999279;28;5157;-50
2023/10/03 01:46:03;;;;;;;;;;;;;;;;;;5006505;28;4863;-49
2023/10/03 01:48:28;;;;;;;;;;;;;;;;;;5005604;28;1411;-50
2023/10/03 01:50:54;;;;;;;;;;;;;;;;;;5005562;28;4940;-49
2023/10/03 01:53:20;;;;;;;;;;;;;;;;;;5004007;28;4978;-48
2023/10/03 01:55:46;;;;;;;;;;;;;;;;;;5003080;28;4864;-49
2023/10/03 01:58:12;;;;;;;;;;;;;;;;;;5001218;28;5249;-49
2023/10/03 02:00:37;;;;;;;;;;;;;;;;;;5000556;28;1914;-52
2023/10/03 02:03:13;;;;;;;;;;;;;;;;;;4980563;28;5056;-49
2023/10/03 02:05:38;;;;;;;;;;;;;;;;;;4996210;28;5022;-49
2023/10/03 02:08:07;;;;;;;;;;;;;;;;;;4995033;28;4542;-51
2023/10/03 02:10:33;;;;;;;;;;;;;;;;;;5003424;28;5035;-48
2023/10/03 02:12:59;;;;;;;;;;;;;;;;;;4996442;28;4951;-52
2023/10/03 02:15:27;;;;;;;;;;;;;;;;;;5001516;28;1099;-51
2023/10/03 02:17:53;;;;;;;;;;;;;;;;;;4998834;28;4642;-49
2023/10/03 02:20:21;;;;;;;;;;;;;;;;;;5006349;28;5504;-49
2023/10/03 02:22:55;;;;;;;;;;;;;;;;;;5004044;28;4523;-53
2023/10/03 02:25:24;;;;;;;;;;;;;;;;;;5011286;28;5551;-48
2023/10/03 02:27:50;;;;;;;;;;;;;;;;;;5002736;28;1451;-52
2023/10/03 02:30:20;;;;;;;;;;;;;;;;;;5008343;28;5030;-52
2023/10/03 02:32:45;;;;;;;;;;;;;;;;;;4997609;28;5059;-51
2023/10/03 02:35:13;;;;;;;;;;;;;;;;;;5008792;28;5031;-51
2023/10/03 02:37:38;;;;;;;;;;;;;;;;;;5010312;28;4495;-52
2023/10/03 02:40:07;;;;;;;;;;;;;;;;;;5010413;28;4411;-49
2023/10/03 02:42:33;;;;;;;;;;;;;;;;;;5001952;28;1907;-50
2023/10/03 02:44:58;;;;;;;;;;;;;;;;;;5007787;28;4818;-48
2023/10/03 02:47:23;;;;;;;;;;;;;;;;;;5005996;28;5006;-50
2023/10/03 02:49:51;;;;;;;;;;;;;;;;;;5002615;28;4489;-50
2023/10/03 02:52:16;;;;;;;;;;;;;;;;;;5004278;28;4916;-49
2023/10/03 02:54:42;;;;;;;;;;;;;;;;;;5007291;28;1927;-50
2023/10/03 02:57:07;;;;;;;;;;;;;;;;;;5007914;28;5071;-52
2023/10/03 02:59:33;;;;;;;;;;;;;;;;;;5010394;28;4863;-53
2023/10/03 03:01:59;;;;;;;;;;;;;;;;;;5006342;28;4680;-49
2023/10/03 03:04:24;;;;;;;;;;;;;;;;;;5005692;28;4484;-52
2023/10/03 03:06:51;;;;;;;;;;;;;;;;;;4992799;28;1168;-48
2023/10/03 03:09:23;;;;;;;;;;;;;;;;;;5008540;28;5187;-49
2023/10/03 03:11:48;;;;;;;;;;;;;;;;;;5009033;28;5665;-51
2023/10/03 03:14:14;;;;;;;;;;;;;;;;;;5009637;28;5047;-51
2023/10/03 03:16:40;;;;;;;;;;;;;;;;;;5010180;28;5132;-48
2023/10/03 03:19:05;;;;;;;;;;;;;;;;;;5008005;28;4566;-52
2023/10/03 03:21:33;;;;;;;;;;;;;;;;;;5006244;28;1898;-49
2023/10/03 03:24:00;;;;;;;;;;;;;;;;;;5009220;28;4899;-51
2023/10/03 03:26:39;;;;;;;;;;;;;;;;;;5001966;28;5860;-51
2023/10/03 03:29:21;;;;;;;;;;;;;;;;;;5004192;28;4966;-48
2023/10/03 03:31:48;;;;;;;;;;;;;;;;;;5004758;28;5045;-50
2023/10/03 03:34:14;;;;;;;;;;;;;;;;;;5003168;28;4988;-52
2023/10/03 03:36:40;;;;;;;;;;;;;;;;;;5007048;28;1346;-50
2023/10/03 03:39:06;;;;;;;;;;;;;;;;;;5000645;28;4908;-49
2023/10/03 03:41:32;;;;;;;;;;;;;;;;;;5009247;28;4887;-51
2023/10/03 03:43:59;;;;;;;;;;;;;;;;;;5004892;28;5197;-51
2023/10/03 03:46:25;;;;;;;;;;;;;;;;;;5002681;28;4984;-48
2023/10/03 03:48:50;;;;;;;;;;;;;;;;;;5004367;28;1514;-51
2023/10/03 03:51:16;;;;;;;;;;;;;;;;;;5008900;28;4420;-52
2023/10/03 03:53:43;;;;;;;;;;;;;;;;;;5008993;28;4642;-51
2023/10/03 03:56:08;;;;;;;;;;;;;;;;;;5009042;28;5173;-48
2023/10/03 03:58:45;;;;;;;;;;;;;;;;;;5007316;28;5063;-48
2023/10/03 04:01:20;;;;;;;;;;;;;;;;;;5006046;28;5155;-50
2023/10/03 04:03:53;;;;;;;;;;;;;;;;;;5009810;28;1205;-50
2023/10/03 04:06:19;;;;;;;;;;;;;;;;;;5005124;28;5216;-48
2023/10/03 04:08:45;;;;;;;;;;;;;;;;;;4991173;28;4476;-51
2023/10/03 04:11:11;;;;;;;;;;;;;;;;;;5007120;28;5860;-51
2023/10/03 04:13:39;;;;;;;;;;;;;;;;;;5007035;28;4990;-50
2023/10/03 04:16:07;;;;;;;;;;;;;;;;;;5007054;28;4750;-49
2023/10/03 04:18:33;;;;;;;;;;;;;;;;;;5006531;28;1490;-50
2023/10/03 04:20:59;;;;;;;;;;;;;;;;;;5000054;28;5029;-50
2023/10/03 04:23:24;;;;;;;;;;;;;;;;;;4990233;28;5079;-49
2023/10/03 04:25:49;;;;;;;;;;;;;;;;;;5000184;28;5279;-51
2023/10/03 04:28:16;;;;;;;;;;;;;;;;;;5002006;28;5006;-48
2023/10/03 04:30:41;;;;;;;;;;;;;;;;;;5006281;28;1120;-48
2023/10/03 04:33:07;;;;;;;;;;;;;;;;;;4999408;28;4392;-50
2023/10/03 04:35:34;;;;;;;;;;;;;;;;;;5003476;28;4635;-49
2023/10/03 04:37:59;;;;;;;;;;;;;;;;;;5003694;28;5002;-48
2023/10/03 04:40:31;;;;;;;;;;;;;;;;;;5000991;28;5069;-51
2023/10/03 04:42:57;;;;;;;;;;;;;;;;;;4999930;28;5065;-48
2023/10/03 04:45:23;;;;;;;;;;;;;;;;;;5001699;28;1128;-50
2023/10/03 04:47:48;;;;;;;;;;;;;;;;;;5003677;28;5017;-51
2023/10/03 04:50:18;;;;;;;;;;;;;;;;;;5005299;28;5124;-48
2023/10/03 04:52:49;;;;;;;;;;;;;;;;;;5007884;28;4454;-48
2023/10/03 04:55:16;;;;;;;;;;;;;;;;;;5007616;28;4548;-47
2023/10/03 04:57:43;;;;;;;;;;;;;;;;;;5004974;28;4893;-51
2023/10/03 05:00:08;;;;;;;;;;;;;;;;;;5005715;28;4824;-50
2023/10/03 05:02:34;;;;;;;;;;;;;;;;;;5006916;28;5023;-47
2023/10/03 05:04:59;;;;;;;;;;;;;;;;;;5007433;28;4481;-48
2023/10/03 05:07:24;;;;;;;;;;;;;;;;;;5006359;28;5000;-49
2023/10/03 05:09:51;;;;;;;;;;;;;;;;;;5006310;28;1229;-49
2023/10/03 05:12:16;;;;;;;;;;;;;;;;;;5003292;28;4514;-50
2023/10/03 05:14:42;;;;;;;;;;;;;;;;;;5007785;28;5021;-50
2023/10/03 05:17:07;;;;;;;;;;;;;;;;;;5006073;28;5136;-50
2023/10/03 05:19:32;;;;;;;;;;;;;;;;;;5001040;28;4549;-51
2023/10/03 05:21:58;;;;;;;;;;;;;;;;;;5005165;28;4494;-49
2023/10/03 05:24:23;;;;;;;;;;;;;;;;;;5001758;28;1133;-49
2023/10/03 05:26:49;;;;;;;;;;;;;;;;;;5007274;28;5035;-50
2023/10/03 05:29:15;;;;;;;;;;;;;;;;;;4997288;28;5068;-50
2023/10/03 05:31:41;;;;;;;;;;;;;;;;;;5007953;28;4860;-51
2023/10/03 05:34:10;;;;;;;;;;;;;;;;;;5001937;28;5104;-51
2023/10/03 05:36:35;;;;;;;;;;;;;;;;;;5005969;28;1106;-49
2023/10/03 05:39:00;;;;;;;;;;;;;;;;;;4995175;28;4997;-51
2023/10/03 05:41:26;;;;;;;;;;;;;;;;;;5002100;28;5127;-50
2023/10/03 05:43:52;;;;;;;;;;;;;;;;;;4997013;28;4905;-49
2023/10/03 05:46:17;;;;;;;;;;;;;;;;;;5000069;28;5076;-47
2023/10/03 05:48:46;;;;;;;;;;;;;;;;;;4981899;28;3625;-51
2023/10/03 05:51:12;;;;;;;;;;;;;;;;;;4979720;28;5025;-50
2023/10/03 05:53:37;;;;;;;;;;;;;;;;;;4999172;28;5031;-48
2023/10/03 05:56:04;;;;;;;;;;;;;;;;;;5001212;28;4673;-48
2023/10/03 05:58:30;;;;;;;;;;;;;;;;;;5003732;28;4888;-50
2023/10/03 06:00:55;;;;;;;;;;;;;;;;;;5001626;28;5097;-49
2023/10/03 06:03:20;;;;;;;;;;;;;;;;;;5001485;28;1190;-52
2023/10/03 06:05:46;;;;;;;;;;;;;;;;;;5004140;28;4890;-48
2023/10/03 06:08:12;;;;;;;;;;;;;;;;;;4996776;28;4533;-49
2023/10/03 06:10:38;;;;;;;;;;;;;;;;;;5003237;28;5058;-48
2023/10/03 06:13:05;;;;;;;;;;;;;;;;;;5005614;28;5201;-49
2023/10/03 06:15:32;;;;;;;;;;;;;;;;;;5001087;28;2441;-49
2023/10/03 06:17:57;;;;;;;;;;;;;;;;;;4999733;28;5026;-50
2023/10/03 06:20:24;;;;;;;;;;;;;;;;;;4998978;28;4891;-48
2023/10/03 06:22:50;;;;;;;;;;;;;;;;;;5005157;28;4495;-48
2023/10/03 06:25:15;;;;;;;;;;;;;;;;;;5003904;28;5458;-49
2023/10/03 06:27:40;;;;;;;;;;;;;;;;;;5006938;28;1416;-48
2023/10/03 06:30:06;;;;;;;;;;;;;;;;;;5001946;28;4415;-49
2023/10/03 06:32:31;;;;;;;;;;;;;;;;;;5002371;28;5021;-50
2023/10/03 06:34:57;;;;;;;;;;;;;;;;;;5002714;28;4866;-48
2023/10/03 06:37:23;;;;;;;;;;;;;;;;;;4997180;28;4715;-48
2023/10/03 06:39:49;;;;;;;;;;;;;;;;;;5007006;28;1170;-47
2023/10/03 06:42:14;;;;;;;;;;;;;;;;;;4998555;28;4889;-49
2023/10/03 06:44:40;;;;;;;;;;;;;;;;;;5001296;28;4619;-47
2023/10/03 06:47:07;;;;;;;;;;;;;;;;;;4999587;28;4979;-47
2023/10/03 06:49:32;;;;;;;;;;;;;;;;;;4995566;28;4568;-49
2023/10/03 06:52:00;;;;;;;;;;;;;;;;;;4996765;28;4992;-47
2023/10/03 06:54:25;;;;;;;;;;;;;;;;;;5004010;28;1252;-49
2023/10/03 06:56:51;;;;;;;;;;;;;;;;;;5004125;28;4949;-49
2023/10/03 06:59:16;;;;;;;;;;;;;;;;;;5006072;28;5000;-49
2023/10/03 07:01:41;;;;;;;;;;;;;;;;;;5000927;28;5032;-51
2023/10/03 07:04:07;;;;;;;;;;;;;;;;;;5004589;28;5138;-51
2023/10/03 07:06:33;;;;;;;;;;;;;;;;;;5006904;28;1212;-49
2023/10/03 07:08:58;;;;;;;;;;;;;;;;;;4990701;28;5221;-47
2023/10/03 07:11:24;;;;;;;;;;;;;;;;;;5007888;28;5102;-48
2023/10/03 07:13:49;;;;;;;;;;;;;;;;;;5006210;28;5037;-50
2023/10/03 07:16:16;;;;;;;;;;;;;;;;;;5007144;28;4881;-51
2023/10/03 07:18:43;;;;;;;;;;;;;;;;;;5008680;28;3436;-48
2023/10/03 07:21:08;;;;;;;;;;;;;;;;;;5007318;28;4950;-48
2023/10/03 07:23:34;;;;;;;;;;;;;;;;;;5003981;28;4891;-47
2023/10/03 07:25:59;;;;;;;;;;;;;;;;;;4994035;28;5034;-49
2023/10/03 07:28:24;;;;;;;;;;;;;;;;;;5004067;28;6062;-47
2023/10/03 07:30:50;;;;;;;;;;;;;;;;;;5003831;28;1113;-48
2023/10/03 07:33:15;;;;;;;;;;;;;;;;;;5005091;28;4932;-48
2023/10/03 07:35:42;;;;;;;;;;;;;;;;;;4990648;28;5170;-47
2023/10/03 07:38:11;;;;;;;;;;;;;;;;;;5002598;28;5271;-47
2023/10/03 07:40:39;;;;;;;;;;;;;;;;;;5003191;28;4663;-47
2023/10/03 07:43:09;;;;;;;;;;;;;;;;;;5006192;28;5519;-49
2023/10/03 07:45:36;;;;;;;;;;;;;;;;;;5004836;28;1260;-47
2023/10/03 07:48:04;;;;;;;;;;;;;;;;;;5008627;28;4951;-48
2023/10/03 07:50:31;;;;;;;;;;;;;;;;;;5005540;28;4830;-50
2023/10/03 07:52:57;;;;;;;;;;;;;;;;;;5020897;28;5029;-50
2023/10/03 07:55:25;;;;;;;;;;;;;;;;;;5003089;28;5035;-50
2023/10/03 07:57:54;;;;;;;;;;;;;;;;;;5004167;28;4940;-50
2023/10/03 08:00:20;;;;;;;;;;;;;;;;;;5001582;28;5042;-46
2023/10/03 08:02:45;;;;;;;;;;;;;;;;;;4988173;28;5095;-47
2023/10/03 08:05:11;;;;;;;;;;;;;;;;;;5007521;28;4705;-48
2023/10/03 08:07:38;;;;;;;;;;;;;;;;;;5004840;28;5172;-47
2023/10/03 08:10:04;;;;;;;;;;;;;;;;;;5000007;28;4505;-47
2023/10/03 08:12:32;;;;;;;;;;;;;;;;;;5005191;28;1102;-46
2023/10/03 08:14:57;;;;;;;;;;;;;;;;;;4989366;28;5914;-47
2023/10/03 08:17:31;;;;;;;;;;;;;;;;;;5004457;28;5099;-48
2023/10/03 08:19:56;;;;;;;;;;;;;;;;;;4998674;28;4873;-47
2023/10/03 08:22:21;;;;;;;;;;;;;;;;;;5006281;28;5028;-46
2023/10/03 08:24:47;;;;;;;;;;;;;;;;;;5003719;28;1068;-51
2023/10/03 08:27:18;;;;;;;;;;;;;;;;;;4996872;28;4631;-47
2023/10/03 08:29:44;;;;;;;;;;;;;;;;;;5003617;28;4624;-49
2023/10/03 08:32:09;;;;;;;;;;;;;;;;;;5000349;28;5153;-46
2023/10/03 08:34:43;;;;;;;;;;;;;;;;;;4998887;28;5023;-48
2023/10/03 08:37:09;;;;;;;;;;;;;;;;;;5005081;28;5020;-47
2023/10/03 08:39:34;;;;;;;;;;;;;;;;;;4997338;28;1107;-48
2023/10/03 08:41:59;;;;;;;;;;;;;;;;;;4987485;28;4856;-47
2023/10/03 08:44:25;;;;;;;;;;;;;;;;;;5000039;28;4939;-48
2023/10/03 08:46:55;;;;;;;;;;;;;;;;;;5001395;28;4474;-47
2023/10/03 08:49:21;;;;;;;;;;;;;;;;;;4998438;28;5211;-48
2023/10/03 08:51:46;;;;;;;;;;;;;;;;;;5011731;28;1424;-48
2023/10/03 08:54:12;;;;;;;;;;;;;;;;;;5004461;28;4477;-51
2023/10/03 08:56:40;;;;;;;;;;;;;;;;;;5000224;28;4930;-49
2023/10/03 08:59:08;;;;;;;;;;;;;;;;;;5019824;28;5823;-50
2023/10/03 09:01:38;;;;;;;;;;;;;;;;;;4998254;28;5096;-51
2023/10/03 09:04:05;;;;;;;;;;;;;;;;;;5001313;28;5101;-49
2023/10/03 09:06:38;;;;;;;;;;;;;;;;;;4988699;28;2050;-49
2023/10/03 09:09:09;;;;;;;;;;;;;;;;;;5003681;28;4841;-47
2023/10/03 09:11:38;;;;;;;;;;;;;;;;;;4997126;28;5019;-48
2023/10/03 09:14:06;;;;;;;;;;;;;;;;;;5005829;28;4961;-48
2023/10/03 09:16:41;;;;;;;;;;;;;;;;;;5001692;28;5087;-49
2023/10/03 09:19:11;;;;;;;;;;;;;;;;;;5000817;28;5009;-50
2023/10/03 09:21:36;;;;;;;;;;;;;;;;;;5004019;28;3495;-46
2023/10/03 09:24:09;;;;;;;;;;;;;;;;;;5001702;28;4831;-47
2023/10/03 09:26:47;;;;;;;;;;;;;;;;;;5004238;28;4718;-48
2023/10/03 09:29:31;;;;;;;;;;;;;;;;;;5004080;28;5067;-46
2023/10/03 09:31:57;;;;;;;;;;;;;;;;;;5005817;28;5093;-56
2023/10/03 09:34:23;;;;;;;;;;;;;;;;;;4992103;28;5138;-53
2023/10/03 09:36:48;;;;;;;;;;;;;;;;;;5006101;28;1203;-53
2023/10/03 09:39:21;;;;;;;;;;;;;;;;;;5003530;28;4952;-47
2023/10/03 09:41:54;;;;;;;;;;;;;;;;;;5003685;28;5034;-49
2023/10/03 09:44:27;;;;;;;;;;;;;;;;;;5002209;28;4584;-50
2023/10/03 09:46:53;;;;;;;;;;;;;;;;;;5007445;28;4933;-53
2023/10/03 09:49:18;;;;;;;;;;;;;;;;;;4996472;28;5112;-50
2023/10/03 09:51:46;;;;;;;;;;;;;;;;;;4990918;28;3354;-59
2023/10/03 09:54:15;;;;;;;;;;;;;;;;;;5016387;28;4441;-58
2023/10/03 09:56:41;;;;;;;;;;;;;;;;;;5004019;28;4998;-60
2023/10/03 09:59:17;;;;;;;;;;;;;;;;;;5016781;28;4472;-59
2023/10/03 10:01:43;;;;;;;;;;;;;;;;;;5000441;28;4538;-59
2023/10/03 10:04:08;;;;;;;;;;;;;;;;;;5015271;28;5182;-60
2023/10/03 10:06:59;;;;;;;;;;;;;;;;;;5001628;28;3290;-59
2023/10/03 10:09:28;;;;;;;;;;;;;;;;;;5019258;28;4573;-55
2023/10/03 10:12:12;;;;;;;;;;;;;;;;;;4995863;28;4506;-54
2023/10/03 10:14:56;;;;;;;;;;;;;;;;;;4996825;28;4848;-55
2023/10/03 10:17:21;;;;;;;;;;;;;;;;;;5000329;28;4616;-54
2023/10/03 10:20:05;;;;;;;;;;;;;;;;;;4996233;28;5032;-53
2023/10/03 10:22:49;;;;;;;;;;;;;;;;;;5000424;28;5013;-52
2023/10/03 10:25:27;;;;;;;;;;;;;;;;;;5003495;28;4436;-52
2023/10/03 10:28:02;;;;;;;;;;;;;;;;;;5002344;28;5095;-55
2023/10/03 10:30:27;;;;;;;;;;;;;;;;;;5001597;28;1305;-56
2023/10/03 10:33:11;;;;;;;;;;;;;;;;;;4998224;28;4545;-53
2023/10/03 10:35:49;;;;;;;;;;;;;;;;;;4998122;28;4596;-51
2023/10/03 10:38:15;;;;;;;;;;;;;;;;;;5002690;28;5060;-55
2023/10/03 10:41:00;;;;;;;;;;;;;;;;;;4987725;28;5028;-55
2023/10/03 10:43:27;;;;;;;;;;;;;;;;;;5002150;28;4831;-55
2023/10/03 10:46:12;;;;;;;;;;;;;;;;;;5009179;28;4971;-55
2023/10/03 10:48:39;;;;;;;;;;;;;;;;;;5007543;28;1472;-53
2023/10/03 10:51:04;;;;;;;;;;;;;;;;;;5007789;28;4579;-55
2023/10/03 10:53:37;;;;;;;;;;;;;;;;;;5009131;28;4913;-56
2023/10/03 10:56:05;;;;;;;;;;;;;;;;;;4992356;28;4567;-54
2023/10/03 10:58:31;;;;;;;;;;;;;;;;;;5005904;28;4979;-54
2023/10/03 11:00:59;;;;;;;;;;;;;;;;;;5004782;28;4518;-54
2023/10/03 11:03:24;;;;;;;;;;;;;;;;;;5001419;28;1140;-52
2023/10/03 11:05:50;;;;;;;;;;;;;;;;;;5002671;28;5091;-52
2023/10/03 11:08:17;;;;;;;;;;;;;;;;;;4998494;28;5025;-54
2023/10/03 11:10:49;;;;;;;;;;;;;;;;;;5003750;28;5165;-56
2023/10/03 11:13:14;;;;;;;;;;;;;;;;;;4996432;28;4472;-53
2023/10/03 11:15:46;;;;;;;;;;;;;;;;;;5005097;28;1162;-51
2023/10/03 11:18:11;;;;;;;;;;;;;;;;;;5008293;28;4585;-55
2023/10/03 11:20:36;;;;;;;;;;;;;;;;;;5017410;28;5072;-57
2023/10/03 11:23:01;;;;;;;;;;;;;;;;;;5001640;28;4662;-55
2023/10/03 11:25:28;;;;;;;;;;;;;;;;;;5005359;28;5100;-52
2023/10/03 11:27:56;;;;;;;;;;;;;;;;;;5005042;28;5185;-56
2023/10/03 11:30:22;;;;;;;;;;;;;;;;;;5012804;28;1536;-50
2023/10/03 11:32:48;;;;;;;;;;;;;;;;;;4990805;28;5054;-54
2023/10/03 11:35:17;;;;;;;;;;;;;;;;;;5007156;28;5042;-55
2023/10/03 11:37:46;;;;;;;;;;;;;;;;;;5005663;28;4515;-54
2023/10/03 11:40:13;;;;;;;;;;;;;;;;;;5008409;28;5108;-53
2023/10/03 11:42:48;;;;;;;;;;;;;;;;;;5008037;28;3367;-53
2023/10/03 11:45:18;;;;;;;;;;;;;;;;;;5006784;28;5538;-53
2023/10/03 11:47:50;;;;;;;;;;;;;;;;;;5008416;28;5122;-55
2023/10/03 11:50:15;;;;;;;;;;;;;;;;;;5003344;28;4631;-62
2023/10/03 11:52:40;;;;;;;;;;;;;;;;;;5003233;28;5105;-61
2023/10/03 11:55:09;;;;;;;;;;;;;;;;;;5004057;28;5177;-61
2023/10/03 11:57:34;;;;;;;;;;;;;;;;;;5007153;28;5088;-63
2023/10/03 12:00:01;;;;;;;;;;;;;;;;;;5007450;28;4831;-61
2023/10/03 12:02:26;;;;;;;;;;;;;;;;;;5006656;28;5125;-59
2023/10/03 12:04:51;;;;;;;;;;;;;;;;;;5003822;28;4713;-60
2023/10/03 12:07:17;;;;;;;;;;;;;;;;;;5005455;28;5088;-65
2023/10/03 12:09:43;;;;;;;;;;;;;;;;;;5006368;28;3427;-61
2023/10/03 12:12:08;;;;;;;;;;;;;;;;;;5007006;28;5131;-59
2023/10/03 12:14:35;;;;;;;;;;;;;;;;;;5005850;28;5156;-61
2023/10/03 12:17:00;;;;;;;;;;;;;;;;;;4989446;28;5041;-60
2023/10/03 12:19:25;;;;;;;;;;;;;;;;;;4988926;28;5111;-62
2023/10/03 12:21:51;;;;;;;;;;;;;;;;;;5006729;28;3343;-60
2023/10/03 12:24:16;;;;;;;;;;;;;;;;;;5007239;28;4589;-60
2023/10/03 12:26:41;;;;;;;;;;;;;;;;;;5007547;28;4835;-58
2023/10/03 12:29:07;;;;;;;;;;;;;;;;;;5002876;28;5392;-59
2023/10/03 12:31:32;;;;;;;;;;;;;;;;;;5003260;28;5023;-63
2023/10/03 12:34:00;;;;;;;;;;;;;;;;;;5005896;28;5290;-62
2023/10/03 12:36:26;;;;;;;;;;;;;;;;;;5003088;28;3346;-57
2023/10/03 12:38:51;;;;;;;;;;;;;;;;;;5003321;28;4915;-59
2023/10/03 12:41:17;;;;;;;;;;;;;;;;;;5003114;28;4678;-63
2023/10/03 12:43:46;;;;;;;;;;;;;;;;;;5006513;28;5048;-64
2023/10/03 12:46:13;;;;;;;;;;;;;;;;;;5001064;28;4979;-62
2023/10/03 12:48:38;;;;;;;;;;;;;;;;;;5007856;28;3484;-59
2023/10/03 12:51:04;;;;;;;;;;;;;;;;;;4985599;28;5370;-59
2023/10/03 12:53:35;;;;;;;;;;;;;;;;;;5018767;28;5049;-58
2023/10/03 12:56:00;;;;;;;;;;;;;;;;;;5002077;28;5229;-63
2023/10/03 12:58:26;;;;;;;;;;;;;;;;;;5005919;28;5128;-63
2023/10/03 13:00:51;;;;;;;;;;;;;;;;;;5003017;28;3262;-60
2023/10/03 13:03:16;;;;;;;;;;;;;;;;;;5002021;28;4760;-60
2023/10/03 13:05:42;;;;;;;;;;;;;;;;;;5004529;28;5076;-64
2023/10/03 13:08:08;;;;;;;;;;;;;;;;;;5004135;28;4651;-59
2023/10/03 13:10:34;;;;;;;;;;;;;;;;;;5005252;28;5551;-60
2023/10/03 13:12:59;;;;;;;;;;;;;;;;;;5006365;28;5680;-61
2023/10/03 13:15:25;;;;;;;;;;;;;;;;;;4999770;28;3254;-61
2023/10/03 13:17:54;;;;;;;;;;;;;;;;;;5003392;28;5107;-64
2023/10/03 13:20:22;;;;;;;;;;;;;;;;;;5002477;28;5158;-59
2023/10/03 13:22:47;;;;;;;;;;;;;;;;;;4998797;28;5074;-54
2023/10/03 13:25:13;;;;;;;;;;;;;;;;;;5012968;28;4633;-49
2023/10/03 13:27:39;;;;;;;;;;;;;;;;;;5005757;28;3266;-58
2023/10/03 13:30:10;;;;;;;;;;;;;;;;;;5004797;28;5301;-55
2023/10/03 13:32:37;;;;;;;;;;;;;;;;;;5001037;28;5250;-56
2023/10/03 13:35:02;;;;;;;;;;;;;;;;;;5000802;28;5090;-55
2023/10/03 13:37:29;;;;;;;;;;;;;;;;;;4983049;28;5158;-52
2023/10/03 13:39:54;;;;;;;;;;;;;;;;;;5004720;28;4524;-53
2023/10/03 13:42:19;;;;;;;;;;;;;;;;;;5006068;28;3427;-50
2023/10/03 13:44:47;;;;;;;;;;;;;;;;;;5005901;28;5393;-50
2023/10/03 13:47:14;;;;;;;;;;;;;;;;;;5001495;28;5104;-50
2023/10/03 13:49:40;;;;;;;;;;;;;;;;;;5001903;28;4745;-51
2023/10/03 13:52:05;;;;;;;;;;;;;;;;;;5006350;28;5055;-50
2023/10/03 13:54:35;;;;;;;;;;;;;;;;;;5008045;28;3262;-52
2023/10/03 13:57:05;;;;;;;;;;;;;;;;;;5004602;28;5061;-51
2023/10/03 13:59:30;;;;;;;;;;;;;;;;;;5006510;28;5016;-52
2023/10/03 14:01:55;;;;;;;;;;;;;;;;;;5001658;28;4481;-48
2023/10/03 14:04:20;;;;;;;;;;;;;;;;;;4987290;28;5477;-52
2023/10/03 14:06:47;;;;;;;;;;;;;;;;;;5001017;28;1141;-53
2023/10/03 14:09:13;;;;;;;;;;;;;;;;;;5003373;28;4662;-51
2023/10/03 14:11:40;;;;;;;;;;;;;;;;;;5003924;28;5082;-53
2023/10/03 14:14:05;;;;;;;;;;;;;;;;;;5000436;28;4910;-50
2023/10/03 14:16:31;;;;;;;;;;;;;;;;;;5001399;28;5041;-52
2023/10/03 14:18:57;;;;;;;;;;;;;;;;;;5001633;28;5135;-52
2023/10/03 14:21:22;;;;;;;;;;;;;;;;;;5007975;28;1973;-53
2023/10/03 14:23:48;;;;;;;;;;;;;;;;;;4992146;28;5075;-53
2023/10/03 14:26:14;;;;;;;;;;;;;;;;;;5001710;28;4923;-53
2023/10/03 14:28:39;;;;;;;;;;;;;;;;;;5004515;28;4580;-51
2023/10/03 14:31:04;;;;;;;;;;;;;;;;;;5018003;28;5080;-51
2023/10/03 14:33:30;;;;;;;;;;;;;;;;;;5005000;28;1102;-52
2023/10/03 14:35:59;;;;;;;;;;;;;;;;;;4999109;28;5116;-51
2023/10/03 14:38:24;;;;;;;;;;;;;;;;;;5001044;28;4900;-49
2023/10/03 14:40:50;;;;;;;;;;;;;;;;;;5003343;28;4741;-49
2023/10/03 14:43:15;;;;;;;;;;;;;;;;;;5003081;28;4487;-49
2023/10/03 14:45:40;;;;;;;;;;;;;;;;;;5004908;28;1470;-48
2023/10/03 14:48:06;;;;;;;;;;;;;;;;;;5005896;28;4602;-52
2023/10/03 14:50:32;;;;;;;;;;;;;;;;;;5003814;28;4854;-52
2023/10/03 14:52:58;;;;;;;;;;;;;;;;;;4990403;28;5052;-50
2023/10/03 14:55:23;;;;;;;;;;;;;;;;;;5006493;28;4876;-49
2023/10/03 14:57:49;;;;;;;;;;;;;;;;;;5009432;28;5013;-52
2023/10/03 15:00:17;;;;;;;;;;;;;;;;;;5010234;28;4946;-49
2023/10/03 15:02:44;;;;;;;;;;;;;;;;;;5021899;28;5051;-52
2023/10/03 15:05:10;;;;;;;;;;;;;;;;;;5009225;28;4506;-50
2023/10/03 15:07:36;;;;;;;;;;;;;;;;;;5009548;28;4922;-53
2023/10/03 15:10:01;;;;;;;;;;;;;;;;;;5009589;28;4442;-50
2023/10/03 15:12:26;;;;;;;;;;;;;;;;;;5007750;28;1192;-50
2023/10/03 15:14:52;;;;;;;;;;;;;;;;;;5005208;28;4414;-52
2023/10/03 15:17:18;;;;;;;;;;;;;;;;;;5009216;28;5041;-51
2023/10/03 15:19:43;;;;;;;;;;;;;;;;;;5009506;28;4470;-52
2023/10/03 15:22:11;;;;;;;;;;;;;;;;;;5008191;28;5054;-51
2023/10/03 15:24:37;;;;;;;;;;;;;;;;;;5009826;28;1681;-49
2023/10/03 15:27:03;;;;;;;;;;;;;;;;;;5007951;28;4961;-51
2023/10/03 15:29:29;;;;;;;;;;;;;;;;;;4999166;28;5966;-52
2023/10/03 15:31:54;;;;;;;;;;;;;;;;;;5005803;28;5008;-50
2023/10/03 15:34:29;;;;;;;;;;;;;;;;;;5008755;28;4856;-49
2023/10/03 15:36:55;;;;;;;;;;;;;;;;;;5009269;28;4725;-52
2023/10/03 15:39:21;;;;;;;;;;;;;;;;;;5002006;28;1997;-49
2023/10/03 15:41:48;;;;;;;;;;;;;;;;;;5002369;28;4998;-50
2023/10/03 15:44:13;;;;;;;;;;;;;;;;;;5004059;28;4863;-51
2023/10/03 15:46:38;;;;;;;;;;;;;;;;;;5009462;28;4980;-52
2023/10/03 15:49:03;;;;;;;;;;;;;;;;;;5007472;28;5068;-49
2023/10/03 15:51:29;;;;;;;;;;;;;;;;;;5007874;28;1311;-52
2023/10/03 15:53:54;;;;;;;;;;;;;;;;;;5003027;28;4432;-49
2023/10/03 15:56:21;;;;;;;;;;;;;;;;;;5004615;28;5079;-51
2023/10/03 15:58:47;;;;;;;;;;;;;;;;;;5002026;28;6005;-51
2023/10/03 16:01:15;;;;;;;;;;;;;;;;;;5007623;28;4536;-51
2023/10/03 16:03:42;;;;;;;;;;;;;;;;;;5005308;28;1268;-52
2023/10/03 16:06:09;;;;;;;;;;;;;;;;;;5005518;28;4606;-50
2023/10/03 16:08:35;;;;;;;;;;;;;;;;;;5008980;28;4958;-49
2023/10/03 16:11:01;;;;;;;;;;;;;;;;;;5002857;28;4450;-52
2023/10/03 16:13:27;;;;;;;;;;;;;;;;;;5008263;28;6598;-53
2023/10/03 16:15:52;;;;;;;;;;;;;;;;;;5001050;28;5063;-50
2023/10/03 16:18:18;;;;;;;;;;;;;;;;;;5005672;28;1154;-52
2023/10/03 16:20:45;;;;;;;;;;;;;;;;;;5007674;28;4443;-52
2023/10/03 16:23:10;;;;;;;;;;;;;;;;;;5004060;28;5135;-53
2023/10/03 16:25:38;;;;;;;;;;;;;;;;;;5003922;28;4721;-50
2023/10/03 16:28:04;;;;;;;;;;;;;;;;;;4997571;28;5863;-50
2023/10/03 16:30:30;;;;;;;;;;;;;;;;;;5005500;28;1375;-50
2023/10/03 16:32:55;;;;;;;;;;;;;;;;;;5000757;28;5032;-52
2023/10/03 16:35:20;;;;;;;;;;;;;;;;;;5000872;28;4987;-48
2023/10/03 16:37:45;;;;;;;;;;;;;;;;;;4998766;28;5032;-48
2023/10/03 16:40:12;;;;;;;;;;;;;;;;;;5001209;28;5017;-51
2023/10/03 16:42:38;;;;;;;;;;;;;;;;;;4993953;28;1910;-51
2023/10/03 16:45:03;;;;;;;;;;;;;;;;;;4983728;28;4833;-51
2023/10/03 16:47:29;;;;;;;;;;;;;;;;;;5001098;28;4846;-51
2023/10/03 16:49:54;;;;;;;;;;;;;;;;;;5003145;28;4938;-49
2023/10/03 16:52:19;;;;;;;;;;;;;;;;;;5005006;28;5103;-52
2023/10/03 16:54:46;;;;;;;;;;;;;;;;;;5004920;28;1165;-52
2023/10/03 16:57:13;;;;;;;;;;;;;;;;;;5006521;28;4873;-50
2023/10/03 16:59:39;;;;;;;;;;;;;;;;;;5007685;28;5967;-51
2023/10/03 17:02:04;;;;;;;;;;;;;;;;;;5003961;28;4481;-51